Ana Sayfa
METAR-TAF:

METAR-TAF

Havaalanları :

Gran Canaria Havalimanı

Gran Canaria, İspanya

Enlem: 27-56N, Boylam: 015-23W, yükseklik: 23 m

Güncel hava durumu gözlemi

Rapor saat 09:30 UTC de 35 dakika önce yapıldı.
Rüzgar kuzeydan 10 kt
Sıcaklık 18°C
Nem 56%
Basınç 1023 hPa
Görüş mesafesi 10 km veya daha fazla
3500 ft yükseklikte az bulutlu

METAR: GCLP 160930Z 35010KT 9999 FEW035 18/09 Q1023 NOSIG

Saat: 10:05 (10:05 UTC)

Tahmin

Rapor saat 08:00 UTC de 2 saat ve 5 dakika önce yapıldı.
Ayın 16'si saat 09 UTC'den ayın 17'si saat 09 UTC'ye kadar geçerli Tahmin
Rüzgar kuzeydan 15 kt
Görüş mesafesi 10 km veya daha fazla
3500 ft yükseklikte parçalı bulutlu
Olasılık 30% :
Geçici
ayın 17'si saat 07 UTC'den ayın 17'si saat 09 UTC'ye kadar
yağmur

TAF: GCLP 160800Z 1609/1709 01015KT 9999 SCT035 TX21/1614Z TN15/1706Z PROB30 TEMPO 1707/1709 RA

4.000'den fazla havaalanı için hava durumu gözlemleri ve tahminleri (METAR ve TAF raporları).

Kullanılabilir istasyonlar harita üzerinde sarı ve kırmızı noktalarla gösterilir.

İstasyonun adını görmek için fareyi noktanın üzerinde gezdirin.

Sonrasında hava gözlem ve tahminlerini görmek için tıklayın.

Haritayı değiştirmek için: yaklaştırmak için siyah artı işaretli yeşil düğmeye ve uzaklaştırmak için de eksi işaretli düğmeye hızla tıklayın; bitişik haritalar için yeşil okları kullanın.


METAR-TAF: